createdAt,value
2018-10-16T00:01:37.565Z,6.50
2018-10-16T00:04:04.276Z,6.73
2018-10-16T00:06:30.245Z,6.23
2018-10-16T00:08:56.222Z,6.30
2018-10-16T00:11:22.209Z,6.10
2018-10-16T00:13:48.154Z,6.17
2018-10-16T00:16:14.102Z,6.33
2018-10-16T00:18:40.091Z,6.70
2018-10-16T00:21:06.039Z,6.40
2018-10-16T00:23:32.005Z,6.50
2018-10-16T00:25:58.686Z,6.67
2018-10-16T00:28:24.668Z,6.13
2018-10-16T00:30:51.363Z,7.10
2018-10-16T00:33:17.306Z,7.23
2018-10-16T00:35:43.285Z,6.53
2018-10-16T00:38:09.235Z,6.20
2018-10-16T00:40:35.204Z,6.90
2018-10-16T00:43:01.149Z,6.90
2018-10-16T00:45:27.142Z,7.47
2018-10-16T00:47:53.088Z,7.03
2018-10-16T00:50:19.109Z,7.53
2018-10-16T00:52:45.059Z,7.03
2018-10-16T00:55:11.007Z,7.90
2018-10-16T00:57:36.982Z,7.67
2018-10-16T01:00:02.977Z,8.47
2018-10-16T01:02:28.963Z,7.97
2018-10-16T01:04:54.922Z,8.00
2018-10-16T01:07:20.896Z,7.93
2018-10-16T01:09:46.822Z,8.20
2018-10-16T01:12:12.802Z,9.23
2018-10-16T01:14:38.766Z,9.13
2018-10-16T01:17:04.733Z,9.57
2018-10-16T01:19:30.692Z,9.67
2018-10-16T01:21:56.648Z,9.47
2018-10-16T01:24:22.628Z,9.37
2018-10-16T01:26:48.611Z,8.00
2018-10-16T01:29:15.341Z,8.73
2018-10-16T01:31:41.289Z,8.17
2018-10-16T01:34:07.267Z,9.73
2018-10-16T01:36:33.223Z,9.00
2018-10-16T01:38:59.938Z,8.63
2018-10-16T01:41:25.899Z,9.07
2018-10-16T01:43:51.894Z,9.43
2018-10-16T01:46:17.852Z,9.20
2018-10-16T01:48:43.825Z,8.30
2018-10-16T01:51:09.780Z,9.47
2018-10-16T01:53:36.582Z,8.90
2018-10-16T01:56:02.528Z,8.27
2018-10-16T01:58:28.475Z,8.53
2018-10-16T02:00:54.448Z,9.33
2018-10-16T02:03:20.401Z,9.30
2018-10-16T02:05:47.117Z,8.17
2018-10-16T02:08:13.052Z,9.63
2018-10-16T02:10:39.044Z,8.80
2018-10-16T02:13:05.004Z,9.30
2018-10-16T02:15:30.986Z,9.07
2018-10-16T02:17:56.950Z,9.13
2018-10-16T02:20:22.929Z,9.47
2018-10-16T02:22:48.929Z,10.50
2018-10-16T02:25:14.893Z,9.57
2018-10-16T02:27:40.886Z,9.50
2018-10-16T02:30:06.853Z,10.47
2018-10-16T02:32:32.843Z,9.40
2018-10-16T02:34:58.806Z,9.40
2018-10-16T02:37:24.778Z,9.73
2018-10-16T02:39:50.720Z,8.97
2018-10-16T02:42:16.704Z,8.83
2018-10-16T02:44:42.682Z,9.07
2018-10-16T02:47:08.662Z,9.37
2018-10-16T02:49:34.637Z,9.83
2018-10-16T02:52:00.578Z,10.07
2018-10-16T02:54:27.277Z,10.13
2018-10-16T02:56:53.253Z,9.53
2018-10-16T02:59:19.227Z,9.37
2018-10-16T03:01:45.222Z,10.20
2018-10-16T03:04:11.176Z,10.50
2018-10-16T03:06:37.153Z,9.77
2018-10-16T03:09:03.119Z,9.97
2018-10-16T03:11:29.119Z,9.63
2018-10-16T03:13:55.818Z,9.60
2018-10-16T03:16:22.514Z,10.63
2018-10-16T03:18:48.497Z,10.60
2018-10-16T03:21:14.451Z,10.20
2018-10-16T03:23:40.440Z,10.37
2018-10-16T03:26:06.401Z,11.53
2018-10-16T03:28:32.384Z,9.80
2018-10-16T03:30:58.361Z,10.00
2018-10-16T03:33:24.356Z,10.47
2018-10-16T03:35:50.302Z,9.87
2018-10-16T03:38:16.277Z,10.20
2018-10-16T03:40:42.228Z,9.90
2018-10-16T03:43:08.219Z,9.83
2018-10-16T03:45:34.184Z,10.33
2018-10-16T03:48:00.171Z,10.20
2018-10-16T03:50:26.113Z,10.33
2018-10-16T03:52:52.100Z,10.93
2018-10-16T03:55:18.797Z,9.67
2018-10-16T03:57:44.796Z,10.77
2018-10-16T04:00:10.749Z,11.13
2018-10-16T04:02:36.700Z,10.37
2018-10-16T04:05:03.431Z,10.87
2018-10-16T04:07:30.137Z,11.17
2018-10-16T04:09:56.136Z,10.33
2018-10-16T04:12:22.092Z,10.27
2018-10-16T04:14:48.080Z,11.03
2018-10-16T04:17:14.048Z,11.20
2018-10-16T04:19:40.060Z,11.60
2018-10-16T04:22:06.028Z,10.30
2018-10-16T04:24:32.773Z,9.80
2018-10-16T04:26:58.751Z,10.30
2018-10-16T04:29:24.737Z,10.37
2018-10-16T04:31:50.701Z,9.47
2018-10-16T04:34:16.679Z,10.57
2018-10-16T04:36:42.626Z,10.30
2018-10-16T04:39:08.588Z,9.83
2018-10-16T04:41:34.567Z,9.73
2018-10-16T04:44:00.561Z,10.13
2018-10-16T04:46:26.565Z,10.33
2018-10-16T04:48:53.316Z,11.13
2018-10-16T04:51:20.011Z,10.77
2018-10-16T04:53:46.018Z,10.87
2018-10-16T04:56:11.985Z,11.50
2018-10-16T04:58:39.483Z,11.37
2018-10-16T05:01:05.442Z,10.77
2018-10-16T05:03:31.430Z,11.70
2018-10-16T05:05:57.409Z,11.67
2018-10-16T05:08:23.370Z,10.93
2018-10-16T05:10:49.343Z,10.73
2018-10-16T05:13:16.197Z,11.30
2018-10-16T05:15:42.062Z,11.77
2018-10-16T05:18:08.037Z,11.03
2018-10-16T05:20:34.779Z,11.87
2018-10-16T05:23:01.495Z,11.23
2018-10-16T05:25:27.488Z,11.07
2018-10-16T05:27:53.463Z,12.60
2018-10-16T05:30:19.468Z,12.03
2018-10-16T05:32:45.440Z,11.87
2018-10-16T05:35:11.405Z,12.23
2018-10-16T05:37:37.428Z,11.60
2018-10-16T05:40:03.423Z,12.20
2018-10-16T05:42:29.417Z,13.33
2018-10-16T05:44:56.120Z,12.37
2018-10-16T05:47:22.096Z,12.83
2018-10-16T05:49:48.799Z,13.97
2018-10-16T05:52:14.780Z,12.73
2018-10-16T05:54:40.736Z,12.27
2018-10-16T05:57:06.689Z,12.67
2018-10-16T05:59:33.433Z,13.23
2018-10-16T06:02:00.129Z,12.43
2018-10-16T06:04:26.120Z,13.13
2018-10-16T06:06:52.070Z,13.33
2018-10-16T06:09:18.075Z,14.07
2018-10-16T06:11:44.037Z,13.67
2018-10-16T06:14:10.031Z,13.47
2018-10-16T06:16:35.995Z,12.67
2018-10-16T06:19:02.446Z,13.33
2018-10-16T06:21:28.396Z,14.37
2018-10-16T06:23:54.360Z,14.13
2018-10-16T06:26:20.357Z,14.73
2018-10-16T06:28:46.331Z,13.93
2018-10-16T06:31:13.066Z,13.60
2018-10-16T06:33:39.751Z,14.10
2018-10-16T06:36:05.739Z,15.07
2018-10-16T06:38:32.440Z,13.93
2018-10-16T06:40:58.610Z,14.80
2018-10-16T06:43:24.421Z,13.17
2018-10-16T06:45:51.229Z,14.37
2018-10-16T06:48:17.362Z,13.20
2018-10-16T06:50:43.154Z,13.60
2018-10-16T06:53:09.202Z,14.47
2018-10-16T06:55:35.122Z,13.73
2018-10-16T06:58:01.103Z,14.90
2018-10-16T07:00:27.063Z,14.83
2018-10-16T07:02:53.036Z,13.93
2018-10-16T07:05:18.984Z,14.27
2018-10-16T07:07:44.981Z,14.47
2018-10-16T07:10:10.937Z,14.97
2018-10-16T07:12:36.870Z,14.70
2018-10-16T07:15:02.900Z,14.43
2018-10-16T07:17:28.845Z,14.30
2018-10-16T07:19:54.825Z,15.90
2018-10-16T07:22:21.517Z,16.83
2018-10-16T07:24:48.261Z,14.20
2018-10-16T07:27:14.247Z,14.87
2018-10-16T07:29:40.261Z,13.73
2018-10-16T07:32:06.217Z,14.70
2018-10-16T07:34:32.245Z,14.93
2018-10-16T07:36:58.954Z,14.67
2018-10-16T07:39:25.456Z,14.77
2018-10-16T07:41:51.453Z,15.50
2018-10-16T07:44:17.403Z,15.40
2018-10-16T07:46:43.381Z,14.03
2018-10-16T07:49:09.339Z,15.03
2018-10-16T07:51:35.314Z,14.73
2018-10-16T07:54:01.265Z,14.33
2018-10-16T07:56:28.003Z,15.23
2018-10-16T07:58:54.707Z,15.23
2018-10-16T08:01:20.707Z,14.70
2018-10-16T08:03:46.656Z,15.40
2018-10-16T08:06:12.642Z,14.93
2018-10-16T08:08:38.615Z,13.77
2018-10-16T08:11:04.605Z,13.40
2018-10-16T08:13:30.567Z,14.07
2018-10-16T08:15:56.545Z,14.40
2018-10-16T08:18:22.519Z,13.73
2018-10-16T08:20:48.493Z,13.83
2018-10-16T08:23:14.446Z,13.73
2018-10-16T08:25:40.434Z,13.23
2018-10-16T08:28:06.369Z,12.97
2018-10-16T08:30:32.367Z,13.43
2018-10-16T08:32:58.364Z,14.30
2018-10-16T08:35:25.074Z,13.17
2018-10-16T08:37:51.054Z,13.93
2018-10-16T08:40:16.991Z,13.63
2018-10-16T08:42:42.969Z,12.50
2018-10-16T08:45:09.803Z,13.37
2018-10-16T08:47:36.519Z,13.17
2018-10-16T08:50:02.435Z,11.60
2018-10-16T08:52:28.401Z,12.70
2018-10-16T08:54:55.150Z,11.23
2018-10-16T08:57:21.884Z,13.13
2018-10-16T08:59:48.584Z,12.33
2018-10-16T09:02:14.564Z,12.07
2018-10-16T09:04:40.509Z,12.63
2018-10-16T09:07:06.463Z,12.77
2018-10-16T09:09:32.456Z,11.27
2018-10-16T09:11:58.425Z,11.40
2018-10-16T09:14:24.408Z,12.33
2018-10-16T09:16:50.398Z,10.97
2018-10-16T09:19:16.416Z,10.73
2018-10-16T09:21:42.383Z,11.30
2018-10-16T09:24:08.396Z,11.07
2018-10-16T09:26:34.375Z,10.37
2018-10-16T09:29:01.113Z,9.77
2018-10-16T09:31:27.826Z,9.77
2018-10-16T09:33:53.798Z,10.23
2018-10-16T09:36:19.776Z,9.83
2018-10-16T09:38:45.762Z,10.33
2018-10-16T09:41:11.710Z,9.40
2018-10-16T09:43:37.671Z,9.83
2018-10-16T09:46:04.392Z,9.57
2018-10-16T09:48:30.347Z,9.30
2018-10-16T09:50:56.330Z,9.67
2018-10-16T09:53:22.283Z,10.10
2018-10-16T09:55:48.293Z,10.63
2018-10-16T09:58:15.000Z,9.30
2018-10-16T10:00:41.022Z,9.40
2018-10-16T10:03:06.967Z,9.67
2018-10-16T10:05:32.952Z,10.20
2018-10-16T10:07:58.950Z,9.40
2018-10-16T10:10:24.967Z,9.47
2018-10-16T10:12:50.933Z,9.00
2018-10-16T10:15:16.904Z,9.10
2018-10-16T10:17:43.615Z,8.80
2018-10-16T10:20:09.564Z,8.30
2018-10-16T10:22:36.286Z,9.23
2018-10-16T10:25:02.259Z,8.30
2018-10-16T10:27:28.234Z,8.40
2018-10-16T10:30:01.721Z,7.83
2018-10-16T10:32:27.725Z,8.60
2018-10-16T10:34:53.678Z,8.20
2018-10-16T10:37:19.654Z,7.90
2018-10-16T10:39:46.350Z,7.40
2018-10-16T10:42:13.145Z,7.27
2018-10-16T10:44:39.055Z,7.07
2018-10-16T10:47:05.752Z,6.30
2018-10-16T10:49:32.475Z,7.30
2018-10-16T10:51:59.216Z,7.00
2018-10-16T10:54:25.221Z,6.80
2018-10-16T10:56:51.198Z,7.73
2018-10-16T10:59:17.200Z,7.17
2018-10-16T11:01:43.904Z,7.73
2018-10-16T11:04:09.890Z,6.70
2018-10-16T11:06:35.843Z,7.77
2018-10-16T11:09:01.896Z,9.03
2018-10-16T11:11:27.805Z,7.23
2018-10-16T11:13:53.773Z,8.20
2018-10-16T11:16:19.771Z,8.80
2018-10-16T11:18:45.728Z,7.37
2018-10-16T11:21:11.776Z,8.23
2018-10-16T11:23:37.732Z,7.73
2018-10-16T11:26:03.745Z,7.27
2018-10-16T11:28:29.689Z,7.53
2018-10-16T11:30:56.450Z,7.33
2018-10-16T11:33:23.121Z,6.47
2018-10-16T11:35:49.089Z,7.13
2018-10-16T11:38:15.069Z,7.47
2018-10-16T11:40:41.136Z,7.50
2018-10-16T11:43:07.882Z,7.93
2018-10-16T11:45:33.870Z,7.03
2018-10-16T11:47:59.806Z,6.37
2018-10-16T11:50:25.797Z,6.47
2018-10-16T11:52:51.753Z,5.87
2018-10-16T11:55:17.718Z,6.00
2018-10-16T11:57:43.694Z,5.37
2018-10-16T12:00:09.710Z,5.07
2018-10-16T12:02:35.741Z,6.03
2018-10-16T12:05:01.717Z,6.33
2018-10-16T12:07:27.692Z,5.70
2018-10-16T12:09:53.675Z,5.33
2018-10-16T12:12:19.625Z,5.47
2018-10-16T12:14:45.638Z,6.33
2018-10-16T12:17:11.586Z,6.07
2018-10-16T12:19:37.641Z,7.33
2018-10-16T12:22:03.537Z,6.10
2018-10-16T12:24:29.551Z,6.47
2018-10-16T12:26:55.522Z,6.53
2018-10-16T12:29:21.484Z,6.60
2018-10-16T12:31:47.483Z,6.37
2018-10-16T12:34:13.447Z,5.83
2018-10-16T12:36:39.437Z,6.77
2018-10-16T12:39:05.416Z,7.37
2018-10-16T12:41:32.124Z,6.97
2018-10-16T12:43:58.110Z,6.50
2018-10-16T12:46:24.113Z,7.23
2018-10-16T12:48:50.813Z,6.73
2018-10-16T12:51:16.849Z,6.90
2018-10-16T12:53:42.800Z,6.70
2018-10-16T12:56:08.818Z,6.87
2018-10-16T12:58:34.802Z,7.07
2018-10-16T13:01:00.735Z,6.57
2018-10-16T13:03:26.778Z,6.43
2018-10-16T13:05:52.723Z,6.13
2018-10-16T13:08:18.736Z,6.83
2018-10-16T13:10:45.434Z,6.63
2018-10-16T13:13:11.433Z,6.70
2018-10-16T13:15:37.383Z,7.27
2018-10-16T13:18:03.341Z,6.47
2018-10-16T13:20:30.051Z,6.40
2018-10-16T13:22:56.025Z,6.03
2018-10-16T13:25:22.016Z,6.73
2018-10-16T13:27:47.975Z,5.90
2018-10-16T13:30:13.953Z,6.23
2018-10-16T13:32:39.913Z,6.30
2018-10-16T13:35:05.946Z,6.70
2018-10-16T13:37:31.893Z,5.90
2018-10-16T13:39:57.934Z,5.90
2018-10-16T13:42:23.942Z,6.20
2018-10-16T13:44:49.901Z,7.07
2018-10-16T13:47:16.595Z,6.80
2018-10-16T13:49:42.566Z,6.80
2018-10-16T13:52:09.381Z,6.40
2018-10-16T13:54:35.272Z,5.90
2018-10-16T13:57:01.291Z,6.53
2018-10-16T13:59:27.278Z,6.17
2018-10-16T14:01:54.018Z,6.23
2018-10-16T14:04:20.720Z,6.37
2018-10-16T14:06:46.697Z,5.90
2018-10-16T14:09:12.660Z,6.03
2018-10-16T14:11:38.650Z,5.80
2018-10-16T14:14:04.672Z,5.30
2018-10-16T14:16:30.674Z,5.87
2018-10-16T14:18:57.370Z,5.80
2018-10-16T14:21:23.362Z,5.40
2018-10-16T14:23:49.319Z,6.07
2018-10-16T14:26:15.371Z,5.80
2018-10-16T14:28:41.318Z,5.53
2018-10-16T14:31:07.319Z,5.77
2018-10-16T14:33:33.281Z,5.73
2018-10-16T14:35:59.291Z,5.57
2018-10-16T14:38:25.238Z,5.97
2018-10-16T14:40:51.204Z,6.10
2018-10-16T14:43:17.190Z,6.30
2018-10-16T14:45:43.146Z,6.40
2018-10-16T14:48:09.941Z,5.67
2018-10-16T14:50:36.608Z,6.10
2018-10-16T14:53:02.598Z,5.83
2018-10-16T14:55:28.572Z,6.40
2018-10-16T14:57:54.527Z,6.50
2018-10-16T15:00:20.538Z,5.93
2018-10-16T15:02:47.248Z,5.73
2018-10-16T15:05:13.215Z,5.40
2018-10-16T15:07:39.202Z,6.07
2018-10-16T15:10:05.369Z,6.53
2018-10-16T15:12:31.238Z,6.07
2018-10-16T15:14:57.231Z,6.17
2018-10-16T15:17:23.213Z,5.60
2018-10-16T15:19:49.950Z,6.27
2018-10-16T15:22:16.817Z,6.20
2018-10-16T15:24:42.681Z,5.63
2018-10-16T15:27:08.620Z,5.90
2018-10-16T15:29:35.402Z,5.73
2018-10-16T15:32:01.470Z,5.50
2018-10-16T15:34:27.405Z,5.63
2018-10-16T15:36:53.402Z,5.80
2018-10-16T15:39:19.356Z,5.97
2018-10-16T15:41:45.345Z,6.17
2018-10-16T15:44:11.344Z,5.20
2018-10-16T15:46:38.081Z,5.60
2018-10-16T15:49:04.127Z,4.97
2018-10-16T15:51:30.087Z,5.53
2018-10-16T15:53:56.133Z,5.10
2018-10-16T15:56:22.140Z,5.70
2018-10-16T15:58:48.876Z,5.43
2018-10-16T16:01:14.822Z,5.63
2018-10-16T16:03:41.554Z,5.10
2018-10-16T16:06:08.323Z,5.83
2018-10-16T16:08:34.327Z,4.90
2018-10-16T16:11:00.268Z,5.57
2018-10-16T16:13:26.288Z,5.13
2018-10-16T16:15:52.269Z,5.40
2018-10-16T16:18:18.343Z,5.63
2018-10-16T16:20:44.280Z,5.93
2018-10-16T16:23:10.241Z,5.00
2018-10-16T16:25:36.236Z,5.30
2018-10-16T16:28:02.292Z,5.93
2018-10-16T16:30:28.222Z,5.90
2018-10-16T16:32:54.216Z,6.13
2018-10-16T16:35:20.207Z,5.23
2018-10-16T16:37:46.167Z,5.47
2018-10-16T16:40:12.239Z,6.07
2018-10-16T16:42:38.219Z,6.23
2018-10-16T16:45:04.960Z,6.27
2018-10-16T16:47:30.963Z,6.60
2018-10-16T16:49:56.997Z,5.80
2018-10-16T16:52:22.947Z,6.97
2018-10-16T16:54:48.922Z,6.07
2018-10-16T16:57:14.914Z,7.10
2018-10-16T16:59:40.881Z,7.03
2018-10-16T17:02:06.929Z,6.87
2018-10-16T17:04:32.967Z,7.27
2018-10-16T17:06:58.881Z,7.73
2018-10-16T17:09:24.834Z,6.73
2018-10-16T17:11:51.579Z,6.33
2018-10-16T17:14:17.556Z,7.47
2018-10-16T17:16:43.528Z,7.20
2018-10-16T17:19:09.504Z,6.97
2018-10-16T17:21:35.457Z,7.53
2018-10-16T17:24:01.459Z,6.93
2018-10-16T17:26:27.494Z,7.43
2018-10-16T17:28:53.437Z,6.73
2018-10-16T17:31:20.146Z,7.20
2018-10-16T17:33:46.126Z,7.27
2018-10-16T17:36:12.077Z,6.77
2018-10-16T17:38:38.101Z,7.47
2018-10-16T17:41:04.061Z,7.93
2018-10-16T17:43:30.812Z,7.00
2018-10-16T17:45:56.798Z,7.03
2018-10-16T17:48:22.766Z,7.47
2018-10-16T17:50:48.743Z,7.67
2018-10-16T17:53:14.696Z,7.10
2018-10-16T17:55:40.704Z,7.13
2018-10-16T17:58:06.639Z,6.60
2018-10-16T18:00:32.688Z,6.63
2018-10-16T18:02:58.627Z,7.43
2018-10-16T18:05:24.659Z,7.47
2018-10-16T18:07:50.695Z,7.47
2018-10-16T18:10:16.681Z,6.03
2018-10-16T18:12:42.665Z,7.17
2018-10-16T18:15:09.458Z,7.47
2018-10-16T18:17:35.386Z,7.53
2018-10-16T18:20:01.372Z,7.20
2018-10-16T18:22:27.350Z,7.10
2018-10-16T18:24:53.359Z,7.53
2018-10-16T18:27:19.323Z,7.70
2018-10-16T18:29:45.324Z,6.70
2018-10-16T18:32:12.083Z,7.30
2018-10-16T18:34:38.796Z,7.00
2018-10-16T18:37:04.772Z,7.50
2018-10-16T18:39:31.505Z,7.10
2018-10-16T18:41:57.430Z,7.90
2018-10-16T18:44:23.464Z,7.00
2018-10-16T18:46:49.422Z,7.77
2018-10-16T18:49:15.420Z,6.83
2018-10-16T18:51:41.413Z,6.80
2018-10-16T18:54:08.163Z,6.73
2018-10-16T18:56:34.169Z,7.40
2018-10-16T18:59:00.133Z,7.20
2018-10-16T19:01:26.086Z,7.27
2018-10-16T19:03:52.067Z,7.00
2018-10-16T19:06:18.054Z,7.40
2018-10-16T19:08:44.802Z,7.50
2018-10-16T19:11:11.477Z,7.33
2018-10-16T19:13:37.465Z,7.00
2018-10-16T19:16:04.199Z,7.03
2018-10-16T19:18:30.916Z,6.77
2018-10-16T19:20:56.914Z,7.63
2018-10-16T19:23:22.913Z,7.10
2018-10-16T19:25:48.864Z,7.53
2018-10-16T19:28:14.847Z,7.13
2018-10-16T19:30:40.832Z,7.47
2018-10-16T19:33:06.806Z,6.97
2018-10-16T19:35:32.823Z,7.27
2018-10-16T19:37:58.805Z,7.40
2018-10-16T19:40:24.775Z,6.97
2018-10-16T19:42:50.752Z,7.20
2018-10-16T19:45:16.818Z,7.03
2018-10-16T19:47:42.696Z,7.50
2018-10-16T19:50:08.679Z,7.23
2018-10-16T19:52:34.624Z,6.83
2018-10-16T19:55:01.354Z,6.90
2018-10-16T19:57:27.308Z,6.90
2018-10-16T19:59:53.318Z,7.23
2018-10-16T20:02:19.276Z,7.07
2018-10-16T20:04:45.966Z,7.53
2018-10-16T20:07:12.016Z,7.20
2018-10-16T20:09:37.967Z,8.17
2018-10-16T20:12:04.676Z,7.40
2018-10-16T20:14:30.641Z,7.47
2018-10-16T20:16:57.362Z,6.60
2018-10-16T20:19:23.287Z,7.37
2018-10-16T20:21:50.053Z,7.40
2018-10-16T20:24:16.047Z,6.60
2018-10-16T20:26:42.088Z,6.87
2018-10-16T20:29:08.107Z,7.57
2018-10-16T20:31:34.817Z,7.30
2018-10-16T20:34:00.805Z,7.57
2018-10-16T20:36:26.814Z,8.10
2018-10-16T20:38:52.758Z,6.90
2018-10-16T20:41:18.757Z,7.47
2018-10-16T20:43:44.748Z,8.07
2018-10-16T20:46:10.702Z,7.47
2018-10-16T20:48:36.695Z,8.00
2018-10-16T20:51:02.652Z,7.67
2018-10-16T20:53:28.639Z,7.27
2018-10-16T20:55:54.582Z,7.63
2018-10-16T20:58:20.598Z,7.60
2018-10-16T21:00:47.296Z,7.97
2018-10-16T21:03:13.318Z,7.80
2018-10-16T21:05:39.380Z,7.13
2018-10-16T21:08:05.263Z,7.13
2018-10-16T21:10:31.224Z,7.87
2018-10-16T21:12:57.992Z,8.07
2018-10-16T21:15:24.699Z,8.00
2018-10-16T21:17:51.402Z,8.43
2018-10-16T21:20:17.389Z,8.33
2018-10-16T21:22:43.362Z,7.93
2018-10-16T21:25:09.375Z,7.90
2018-10-16T21:27:35.346Z,7.87
2018-10-16T21:30:02.068Z,8.13
2018-10-16T21:32:28.777Z,8.87
2018-10-16T21:34:54.757Z,8.40
2018-10-16T21:37:20.727Z,8.60
2018-10-16T21:39:46.732Z,8.93
2018-10-16T21:42:12.710Z,9.10
2018-10-16T21:44:39.430Z,8.60
2018-10-16T21:47:05.384Z,8.73
2018-10-16T21:49:32.093Z,7.97
2018-10-16T21:51:58.025Z,8.70
2018-10-16T21:54:24.004Z,7.30
2018-10-16T21:56:49.969Z,8.03
2018-10-16T21:59:16.827Z,8.63
2018-10-16T22:01:42.731Z,8.50
2018-10-16T22:04:08.727Z,8.60
2018-10-16T22:06:34.683Z,8.77
2018-10-16T22:09:01.381Z,8.90
2018-10-16T22:11:27.356Z,8.60
2018-10-16T22:13:54.043Z,7.67
2018-10-16T22:16:20.003Z,7.77
2018-10-16T22:18:46.711Z,8.50
2018-10-16T22:21:12.677Z,8.10
2018-10-16T22:23:39.403Z,8.07
2018-10-16T22:26:06.117Z,8.13
2018-10-16T22:28:32.064Z,8.27
2018-10-16T22:30:58.055Z,8.67
2018-10-16T22:33:24.015Z,8.30
2018-10-16T22:35:50.725Z,7.70
2018-10-16T22:38:16.680Z,7.23
2018-10-16T22:40:43.424Z,9.17
2018-10-16T22:43:10.254Z,8.67
2018-10-16T22:45:36.141Z,8.30
2018-10-16T22:48:02.102Z,8.47
2018-10-16T22:50:28.050Z,8.83
2018-10-16T22:52:54.810Z,8.53
2018-10-16T22:55:20.761Z,9.33
2018-10-16T22:57:46.746Z,8.73
2018-10-16T23:00:12.707Z,8.40
2018-10-16T23:02:38.682Z,8.80
2018-10-16T23:05:05.383Z,8.87
2018-10-16T23:07:31.350Z,9.27
2018-10-16T23:09:57.299Z,9.10
2018-10-16T23:12:23.347Z,9.20
2018-10-16T23:14:50.081Z,9.10
2018-10-16T23:17:16.059Z,8.47
2018-10-16T23:19:42.164Z,9.77
2018-10-16T23:22:08.157Z,10.47
2018-10-16T23:24:34.124Z,10.00
2018-10-16T23:27:00.812Z,10.10
2018-10-16T23:29:26.936Z,10.10
2018-10-16T23:31:52.958Z,10.17
2018-10-16T23:34:19.031Z,9.57
2018-10-16T23:36:45.730Z,10.27
2018-10-16T23:39:11.724Z,9.83
2018-10-16T23:41:37.704Z,10.10
2018-10-16T23:44:03.644Z,10.23
2018-10-16T23:46:29.645Z,9.73
2018-10-16T23:48:55.709Z,10.70
2018-10-16T23:51:21.621Z,10.10
2018-10-16T23:53:47.589Z,10.97
2018-10-16T23:56:13.577Z,9.53
2018-10-16T23:58:39.542Z,10.63
